sensor_id;sensor_type;location;lat;lon;timestamp;P1;durP1;ratioP1;P2;durP2;ratioP2
51475;SDS011;37554;50.362;7.568;2023-05-21T00:02:08;6.93;;;6.32;;
51475;SDS011;37554;50.362;7.568;2023-05-21T00:04:38;6.47;;;5.72;;
51475;SDS011;37554;50.362;7.568;2023-05-21T00:07:07;6.40;;;5.90;;
51475;SDS011;37554;50.362;7.568;2023-05-21T00:09:33;6.13;;;5.60;;
51475;SDS011;37554;50.362;7.568;2023-05-21T00:11:59;7.35;;;5.80;;
51475;SDS011;37554;50.362;7.568;2023-05-21T00:14:25;6.90;;;6.20;;
51475;SDS011;37554;50.362;7.568;2023-05-21T00:16:50;6.63;;;5.95;;
51475;SDS011;37554;50.362;7.568;2023-05-21T00:19:16;7.40;;;6.80;;
51475;SDS011;37554;50.362;7.568;2023-05-21T00:21:42;6.43;;;5.93;;
51475;SDS011;37554;50.362;7.568;2023-05-21T00:24:09;6.97;;;6.38;;
51475;SDS011;37554;50.362;7.568;2023-05-21T00:26:35;6.50;;;6.00;;
51475;SDS011;37554;50.362;7.568;2023-05-21T00:29:01;7.50;;;6.80;;
51475;SDS011;37554;50.362;7.568;2023-05-21T00:31:27;8.35;;;7.13;;
51475;SDS011;37554;50.362;7.568;2023-05-21T00:33:53;6.78;;;6.18;;
51475;SDS011;37554;50.362;7.568;2023-05-21T00:36:18;7.15;;;6.50;;
51475;SDS011;37554;50.362;7.568;2023-05-21T00:38:47;7.43;;;6.55;;
51475;SDS011;37554;50.362;7.568;2023-05-21T00:41:14;7.05;;;6.35;;
51475;SDS011;37554;50.362;7.568;2023-05-21T00:43:40;6.53;;;5.95;;
51475;SDS011;37554;50.362;7.568;2023-05-21T00:46:18;6.85;;;6.22;;
51475;SDS011;37554;50.362;7.568;2023-05-21T00:48:45;6.38;;;5.85;;
51475;SDS011;37554;50.362;7.568;2023-05-21T00:51:12;9.40;;;6.80;;
51475;SDS011;37554;50.362;7.568;2023-05-21T00:53:38;7.82;;;6.43;;
51475;SDS011;37554;50.362;7.568;2023-05-21T00:56:05;6.88;;;6.18;;
51475;SDS011;37554;50.362;7.568;2023-05-21T00:58:31;6.68;;;6.18;;
51475;SDS011;37554;50.362;7.568;2023-05-21T01:00:58;7.05;;;6.45;;
51475;SDS011;37554;50.362;7.568;2023-05-21T01:03:28;7.22;;;6.55;;
51475;SDS011;37554;50.362;7.568;2023-05-21T01:05:54;7.43;;;6.78;;
51475;SDS011;37554;50.362;7.568;2023-05-21T01:08:23;6.93;;;6.35;;
51475;SDS011;37554;50.362;7.568;2023-05-21T01:10:51;8.35;;;6.75;;
51475;SDS011;37554;50.362;7.568;2023-05-21T01:13:18;7.00;;;6.38;;
51475;SDS011;37554;50.362;7.568;2023-05-21T01:15:46;8.98;;;7.20;;
51475;SDS011;37554;50.362;7.568;2023-05-21T01:18:13;6.60;;;5.93;;
51475;SDS011;37554;50.362;7.568;2023-05-21T01:20:40;6.50;;;5.95;;
51475;SDS011;37554;50.362;7.568;2023-05-21T01:23:14;7.30;;;6.60;;
51475;SDS011;37554;50.362;7.568;2023-05-21T01:25:41;7.15;;;6.43;;
51475;SDS011;37554;50.362;7.568;2023-05-21T01:28:06;8.10;;;6.57;;
51475;SDS011;37554;50.362;7.568;2023-05-21T01:30:32;7.07;;;6.32;;
51475;SDS011;37554;50.362;7.568;2023-05-21T01:33:03;7.75;;;6.88;;
51475;SDS011;37554;50.362;7.568;2023-05-21T01:35:35;7.07;;;6.50;;
51475;SDS011;37554;50.362;7.568;2023-05-21T01:40:47;7.68;;;6.97;;
51475;SDS011;37554;50.362;7.568;2023-05-21T01:43:28;7.90;;;7.20;;
51475;SDS011;37554;50.362;7.568;2023-05-21T01:45:59;7.25;;;6.57;;
51475;SDS011;37554;50.362;7.568;2023-05-21T01:48:26;7.20;;;6.70;;
51475;SDS011;37554;50.362;7.568;2023-05-21T01:50:54;7.50;;;6.80;;
51475;SDS011;37554;50.362;7.568;2023-05-21T01:53:21;8.00;;;7.30;;
51475;SDS011;37554;50.362;7.568;2023-05-21T01:55:47;7.90;;;7.03;;
51475;SDS011;37554;50.362;7.568;2023-05-21T01:58:13;7.70;;;6.68;;
51475;SDS011;37554;50.362;7.568;2023-05-21T02:00:42;6.82;;;6.30;;
51475;SDS011;37554;50.362;7.568;2023-05-21T02:03:09;8.00;;;7.28;;
51475;SDS011;37554;50.362;7.568;2023-05-21T02:05:35;8.15;;;7.45;;
51475;SDS011;37554;50.362;7.568;2023-05-21T02:08:00;7.80;;;7.10;;
51475;SDS011;37554;50.362;7.568;2023-05-21T02:10:26;7.95;;;7.18;;
51475;SDS011;37554;50.362;7.568;2023-05-21T02:12:52;7.97;;;7.07;;
51475;SDS011;37554;50.362;7.568;2023-05-21T02:15:17;7.55;;;6.85;;
51475;SDS011;37554;50.362;7.568;2023-05-21T02:17:43;7.90;;;7.20;;
51475;SDS011;37554;50.362;7.568;2023-05-21T02:20:10;7.97;;;7.20;;
51475;SDS011;37554;50.362;7.568;2023-05-21T02:22:40;8.40;;;7.60;;
51475;SDS011;37554;50.362;7.568;2023-05-21T02:25:07;7.72;;;7.03;;
51475;SDS011;37554;50.362;7.568;2023-05-21T02:27:33;7.97;;;7.28;;
51475;SDS011;37554;50.362;7.568;2023-05-21T02:30:01;8.02;;;6.93;;
51475;SDS011;37554;50.362;7.568;2023-05-21T02:32:28;7.88;;;7.07;;
51475;SDS011;37554;50.362;7.568;2023-05-21T02:34:55;7.22;;;6.50;;
51475;SDS011;37554;50.362;7.568;2023-05-21T02:37:22;8.55;;;6.90;;
51475;SDS011;37554;50.362;7.568;2023-05-21T02:39:49;7.75;;;7.00;;
51475;SDS011;37554;50.362;7.568;2023-05-21T02:42:15;6.72;;;6.13;;
51475;SDS011;37554;50.362;7.568;2023-05-21T02:44:40;7.10;;;6.50;;
51475;SDS011;37554;50.362;7.568;2023-05-21T02:47:06;7.55;;;6.85;;
51475;SDS011;37554;50.362;7.568;2023-05-21T02:49:34;6.60;;;6.03;;
51475;SDS011;37554;50.362;7.568;2023-05-21T02:51:59;7.18;;;6.50;;
51475;SDS011;37554;50.362;7.568;2023-05-21T02:54:25;7.53;;;6.22;;
51475;SDS011;37554;50.362;7.568;2023-05-21T02:56:51;7.32;;;6.63;;
51475;SDS011;37554;50.362;7.568;2023-05-21T02:59:16;7.35;;;6.70;;
51475;SDS011;37554;50.362;7.568;2023-05-21T03:01:42;7.75;;;6.95;;
51475;SDS011;37554;50.362;7.568;2023-05-21T03:04:09;6.18;;;5.63;;
51475;SDS011;37554;50.362;7.568;2023-05-21T03:06:34;8.05;;;6.50;;
51475;SDS011;37554;50.362;7.568;2023-05-21T03:09:01;7.38;;;6.70;;
51475;SDS011;37554;50.362;7.568;2023-05-21T03:11:27;7.05;;;6.35;;
51475;SDS011;37554;50.362;7.568;2023-05-21T03:13:52;6.95;;;6.38;;
51475;SDS011;37554;50.362;7.568;2023-05-21T03:16:18;7.20;;;6.13;;
51475;SDS011;37554;50.362;7.568;2023-05-21T03:18:44;7.93;;;6.30;;
51475;SDS011;37554;50.362;7.568;2023-05-21T03:21:09;6.70;;;6.03;;
51475;SDS011;37554;50.362;7.568;2023-05-21T03:23:37;7.20;;;6.38;;
51475;SDS011;37554;50.362;7.568;2023-05-21T03:26:03;6.63;;;6.03;;
51475;SDS011;37554;50.362;7.568;2023-05-21T03:28:29;6.53;;;5.90;;
51475;SDS011;37554;50.362;7.568;2023-05-21T03:30:55;7.00;;;5.97;;
51475;SDS011;37554;50.362;7.568;2023-05-21T03:33:21;6.18;;;5.63;;
51475;SDS011;37554;50.362;7.568;2023-05-21T03:35:47;6.90;;;6.28;;
51475;SDS011;37554;50.362;7.568;2023-05-21T03:38:12;7.10;;;5.93;;
51475;SDS011;37554;50.362;7.568;2023-05-21T03:40:38;6.60;;;6.03;;
51475;SDS011;37554;50.362;7.568;2023-05-21T03:43:04;6.53;;;5.93;;
51475;SDS011;37554;50.362;7.568;2023-05-21T03:45:29;8.10;;;6.50;;
51475;SDS011;37554;50.362;7.568;2023-05-21T03:47:55;7.03;;;5.90;;
51475;SDS011;37554;50.362;7.568;2023-05-21T03:50:20;6.63;;;5.97;;
51475;SDS011;37554;50.362;7.568;2023-05-21T03:52:46;6.72;;;5.85;;
51475;SDS011;37554;50.362;7.568;2023-05-21T03:55:11;5.93;;;5.43;;
51475;SDS011;37554;50.362;7.568;2023-05-21T03:57:37;6.78;;;6.22;;
51475;SDS011;37554;50.362;7.568;2023-05-21T04:00:03;5.93;;;5.43;;
51475;SDS011;37554;50.362;7.568;2023-05-21T04:02:30;6.55;;;5.95;;
51475;SDS011;37554;50.362;7.568;2023-05-21T04:04:56;6.88;;;6.05;;
51475;SDS011;37554;50.362;7.568;2023-05-21T04:07:22;6.03;;;5.53;;
51475;SDS011;37554;50.362;7.568;2023-05-21T04:09:47;6.90;;;6.30;;
51475;SDS011;37554;50.362;7.568;2023-05-21T04:12:13;6.70;;;5.65;;
51475;SDS011;37554;50.362;7.568;2023-05-21T04:14:39;6.25;;;5.72;;
51475;SDS011;37554;50.362;7.568;2023-05-21T04:17:05;7.20;;;6.50;;
51475;SDS011;37554;50.362;7.568;2023-05-21T04:19:31;6.50;;;5.90;;
51475;SDS011;37554;50.362;7.568;2023-05-21T04:21:57;7.45;;;6.57;;
51475;SDS011;37554;50.362;7.568;2023-05-21T04:24:23;7.35;;;6.07;;
51475;SDS011;37554;50.362;7.568;2023-05-21T04:26:49;6.32;;;5.72;;
51475;SDS011;37554;50.362;7.568;2023-05-21T04:29:15;6.88;;;6.30;;
51475;SDS011;37554;50.362;7.568;2023-05-21T04:31:45;6.57;;;5.93;;
51475;SDS011;37554;50.362;7.568;2023-05-21T04:34:13;6.90;;;6.00;;
51475;SDS011;37554;50.362;7.568;2023-05-21T04:36:41;6.82;;;6.15;;
51475;SDS011;37554;50.362;7.568;2023-05-21T04:39:09;8.25;;;5.82;;
51475;SDS011;37554;50.362;7.568;2023-05-21T04:41:38;7.00;;;6.30;;
51475;SDS011;37554;50.362;7.568;2023-05-21T04:44:07;6.93;;;6.32;;
51475;SDS011;37554;50.362;7.568;2023-05-21T04:46:33;6.20;;;5.55;;
51475;SDS011;37554;50.362;7.568;2023-05-21T04:49:01;7.65;;;6.30;;
51475;SDS011;37554;50.362;7.568;2023-05-21T04:51:27;7.63;;;6.90;;
51475;SDS011;37554;50.362;7.568;2023-05-21T04:53:53;6.72;;;6.13;;
51475;SDS011;37554;50.362;7.568;2023-05-21T04:56:19;7.55;;;6.85;;
51475;SDS011;37554;50.362;7.568;2023-05-21T04:58:50;7.43;;;6.75;;
51475;SDS011;37554;50.362;7.568;2023-05-21T05:01:16;6.47;;;5.88;;
51475;SDS011;37554;50.362;7.568;2023-05-21T05:03:44;7.57;;;6.80;;
51475;SDS011;37554;50.362;7.568;2023-05-21T05:06:09;7.20;;;6.60;;
51475;SDS011;37554;50.362;7.568;2023-05-21T05:08:35;7.50;;;6.80;;
51475;SDS011;37554;50.362;7.568;2023-05-21T05:11:01;7.20;;;6.50;;
51475;SDS011;37554;50.362;7.568;2023-05-21T05:13:27;7.45;;;6.85;;
51475;SDS011;37554;50.362;7.568;2023-05-21T05:15:52;7.20;;;6.38;;
51475;SDS011;37554;50.362;7.568;2023-05-21T05:18:18;7.78;;;7.07;;
51475;SDS011;37554;50.362;7.568;2023-05-21T05:20:44;9.40;;;7.05;;
51475;SDS011;37554;50.362;7.568;2023-05-21T05:23:11;8.07;;;6.97;;
51475;SDS011;37554;50.362;7.568;2023-05-21T05:25:36;7.22;;;6.50;;
51475;SDS011;37554;50.362;7.568;2023-05-21T05:28:02;8.18;;;7.38;;
51475;SDS011;37554;50.362;7.568;2023-05-21T05:30:28;7.05;;;6.40;;
51475;SDS011;37554;50.362;7.568;2023-05-21T05:32:53;10.00;;;6.70;;
51475;SDS011;37554;50.362;7.568;2023-05-21T05:35:19;8.00;;;7.20;;
51475;SDS011;37554;50.362;7.568;2023-05-21T05:37:45;7.75;;;6.68;;
51475;SDS011;37554;50.362;7.568;2023-05-21T05:40:10;7.45;;;6.72;;
51475;SDS011;37554;50.362;7.568;2023-05-21T05:42:36;7.32;;;6.50;;
51475;SDS011;37554;50.362;7.568;2023-05-21T05:45:01;7.47;;;6.70;;
51475;SDS011;37554;50.362;7.568;2023-05-21T05:47:27;7.35;;;6.75;;
51475;SDS011;37554;50.362;7.568;2023-05-21T05:49:53;8.18;;;6.90;;
51475;SDS011;37554;50.362;7.568;2023-05-21T05:52:19;7.97;;;6.95;;
51475;SDS011;37554;50.362;7.568;2023-05-21T05:54:45;8.63;;;6.88;;
51475;SDS011;37554;50.362;7.568;2023-05-21T05:57:11;7.32;;;6.63;;
51475;SDS011;37554;50.362;7.568;2023-05-21T05:59:36;7.18;;;6.47;;
51475;SDS011;37554;50.362;7.568;2023-05-21T06:02:02;7.70;;;6.50;;
51475;SDS011;37554;50.362;7.568;2023-05-21T06:04:28;6.60;;;6.05;;
51475;SDS011;37554;50.362;7.568;2023-05-21T06:06:54;7.75;;;6.95;;
51475;SDS011;37554;50.362;7.568;2023-05-21T06:09:23;6.78;;;6.18;;
51475;SDS011;37554;50.362;7.568;2023-05-21T06:11:49;7.18;;;6.47;;
51475;SDS011;37554;50.362;7.568;2023-05-21T06:14:15;7.68;;;6.70;;
51475;SDS011;37554;50.362;7.568;2023-05-21T06:16:41;7.90;;;7.10;;
51475;SDS011;37554;50.362;7.568;2023-05-21T06:19:06;11.80;;;8.93;;
51475;SDS011;37554;50.362;7.568;2023-05-21T06:21:32;9.95;;;8.90;;
51475;SDS011;37554;50.362;7.568;2023-05-21T06:23:58;10.55;;;9.25;;
51475;SDS011;37554;50.362;7.568;2023-05-21T06:26:23;11.10;;;9.95;;
51475;SDS011;37554;50.362;7.568;2023-05-21T06:28:49;11.07;;;9.93;;
51475;SDS011;37554;50.362;7.568;2023-05-21T06:31:14;10.68;;;8.98;;
51475;SDS011;37554;50.362;7.568;2023-05-21T06:33:40;11.38;;;8.88;;
51475;SDS011;37554;50.362;7.568;2023-05-21T06:36:06;11.45;;;9.70;;
51475;SDS011;37554;50.362;7.568;2023-05-21T06:38:32;10.45;;;9.45;;
51475;SDS011;37554;50.362;7.568;2023-05-21T06:40:58;10.90;;;9.75;;
51475;SDS011;37554;50.362;7.568;2023-05-21T06:43:23;10.75;;;9.75;;
51475;SDS011;37554;50.362;7.568;2023-05-21T06:45:49;11.35;;;8.98;;
51475;SDS011;37554;50.362;7.568;2023-05-21T06:48:15;13.00;;;9.73;;
51475;SDS011;37554;50.362;7.568;2023-05-21T06:50:41;9.75;;;7.85;;
51475;SDS011;37554;50.362;7.568;2023-05-21T06:53:07;9.27;;;7.22;;
51475;SDS011;37554;50.362;7.568;2023-05-21T06:55:33;7.78;;;7.07;;
51475;SDS011;37554;50.362;7.568;2023-05-21T06:57:59;8.35;;;7.18;;
51475;SDS011;37554;50.362;7.568;2023-05-21T07:00:24;8.95;;;7.07;;
51475;SDS011;37554;50.362;7.568;2023-05-21T07:02:50;9.55;;;7.85;;
51475;SDS011;37554;50.362;7.568;2023-05-21T07:05:19;7.57;;;6.88;;
51475;SDS011;37554;50.362;7.568;2023-05-21T07:07:45;8.10;;;7.30;;
51475;SDS011;37554;50.362;7.568;2023-05-21T07:10:10;8.90;;;7.47;;
51475;SDS011;37554;50.362;7.568;2023-05-21T07:12:36;7.43;;;6.70;;
51475;SDS011;37554;50.362;7.568;2023-05-21T07:15:02;7.63;;;6.82;;
51475;SDS011;37554;50.362;7.568;2023-05-21T07:17:28;7.72;;;6.93;;
51475;SDS011;37554;50.362;7.568;2023-05-21T07:19:56;7.85;;;7.10;;
51475;SDS011;37554;50.362;7.568;2023-05-21T07:22:22;9.70;;;6.57;;
51475;SDS011;37554;50.362;7.568;2023-05-21T07:24:47;10.68;;;8.85;;
51475;SDS011;37554;50.362;7.568;2023-05-21T07:27:13;9.70;;;8.52;;
51475;SDS011;37554;50.362;7.568;2023-05-21T07:29:38;9.90;;;8.90;;
51475;SDS011;37554;50.362;7.568;2023-05-21T07:32:04;10.90;;;9.00;;
51475;SDS011;37554;50.362;7.568;2023-05-21T07:34:30;10.00;;;8.57;;
51475;SDS011;37554;50.362;7.568;2023-05-21T07:36:56;9.90;;;8.90;;
51475;SDS011;37554;50.362;7.568;2023-05-21T07:39:22;9.68;;;8.73;;
51475;SDS011;37554;50.362;7.568;2023-05-21T07:41:48;9.15;;;8.23;;
51475;SDS011;37554;50.362;7.568;2023-05-21T07:44:13;8.07;;;7.38;;
51475;SDS011;37554;50.362;7.568;2023-05-21T07:46:39;8.18;;;6.88;;
51475;SDS011;37554;50.362;7.568;2023-05-21T07:49:04;7.63;;;6.60;;
51475;SDS011;37554;50.362;7.568;2023-05-21T07:51:30;7.30;;;6.60;;
51475;SDS011;37554;50.362;7.568;2023-05-21T07:53:57;6.60;;;5.97;;
51475;SDS011;37554;50.362;7.568;2023-05-21T07:56:22;6.68;;;6.07;;
51475;SDS011;37554;50.362;7.568;2023-05-21T07:58:48;9.25;;;6.25;;
51475;SDS011;37554;50.362;7.568;2023-05-21T08:01:14;6.18;;;5.63;;
51475;SDS011;37554;50.362;7.568;2023-05-21T08:03:40;8.55;;;6.22;;
51475;SDS011;37554;50.362;7.568;2023-05-21T08:06:05;7.20;;;5.72;;
51475;SDS011;37554;50.362;7.568;2023-05-21T08:08:31;6.95;;;6.20;;
51475;SDS011;37554;50.362;7.568;2023-05-21T08:10:57;6.43;;;5.85;;
51475;SDS011;37554;50.362;7.568;2023-05-21T08:13:22;7.00;;;5.45;;
51475;SDS011;37554;50.362;7.568;2023-05-21T08:15:48;6.00;;;5.50;;
51475;SDS011;37554;50.362;7.568;2023-05-21T08:18:14;8.38;;;6.22;;
51475;SDS011;37554;50.362;7.568;2023-05-21T08:20:41;6.95;;;6.25;;
51475;SDS011;37554;50.362;7.568;2023-05-21T08:23:07;6.05;;;5.55;;
51475;SDS011;37554;50.362;7.568;2023-05-21T08:25:32;7.43;;;5.93;;
51475;SDS011;37554;50.362;7.568;2023-05-21T08:27:58;6.25;;;5.65;;
51475;SDS011;37554;50.362;7.568;2023-05-21T08:30:24;6.68;;;6.07;;
51475;SDS011;37554;50.362;7.568;2023-05-21T08:32:49;6.07;;;5.53;;
51475;SDS011;37554;50.362;7.568;2023-05-21T08:35:15;8.98;;;7.63;;
51475;SDS011;37554;50.362;7.568;2023-05-21T08:37:41;8.85;;;7.95;;
51475;SDS011;37554;50.362;7.568;2023-05-21T08:40:07;10.10;;;8.45;;
51475;SDS011;37554;50.362;7.568;2023-05-21T08:45:16;9.55;;;8.15;;
51475;SDS011;37554;50.362;7.568;2023-05-21T08:47:45;9.65;;;8.65;;
51475;SDS011;37554;50.362;7.568;2023-05-21T08:50:15;9.13;;;8.32;;
51475;SDS011;37554;50.362;7.568;2023-05-21T08:52:43;8.80;;;8.00;;
51475;SDS011;37554;50.362;7.568;2023-05-21T08:55:09;8.93;;;7.60;;
51475;SDS011;37554;50.362;7.568;2023-05-21T08:57:35;10.05;;;8.40;;
51475;SDS011;37554;50.362;7.568;2023-05-21T09:00:01;9.50;;;8.43;;
51475;SDS011;37554;50.362;7.568;2023-05-21T09:02:30;8.57;;;7.75;;
51475;SDS011;37554;50.362;7.568;2023-05-21T09:04:58;12.38;;;8.70;;
51475;SDS011;37554;50.362;7.568;2023-05-21T09:07:27;9.73;;;7.85;;
51475;SDS011;37554;50.362;7.568;2023-05-21T09:12:21;8.45;;;7.65;;
51475;SDS011;37554;50.362;7.568;2023-05-21T09:14:47;9.85;;;8.38;;
51475;SDS011;37554;50.362;7.568;2023-05-21T09:17:13;8.85;;;7.93;;
51475;SDS011;37554;50.362;7.568;2023-05-21T09:20:25;8.90;;;7.85;;
51475;SDS011;37554;50.362;7.568;2023-05-21T09:22:47;9.95;;;8.77;;
51475;SDS011;37554;50.362;7.568;2023-05-21T09:25:20;9.27;;;8.30;;
51475;SDS011;37554;50.362;7.568;2023-05-21T09:27:47;7.82;;;7.10;;
51475;SDS011;37554;50.362;7.568;2023-05-21T09:30:16;8.05;;;7.25;;
51475;SDS011;37554;50.362;7.568;2023-05-21T09:32:43;9.48;;;7.60;;
51475;SDS011;37554;50.362;7.568;2023-05-21T09:35:10;11.05;;;7.72;;
51475;SDS011;37554;50.362;7.568;2023-05-21T09:37:40;14.25;;;7.72;;
51475;SDS011;37554;50.362;7.568;2023-05-21T09:40:11;8.85;;;8.00;;
51475;SDS011;37554;50.362;7.568;2023-05-21T09:42:38;7.60;;;6.80;;
51475;SDS011;37554;50.362;7.568;2023-05-21T09:45:06;8.02;;;7.30;;
51475;SDS011;37554;50.362;7.568;2023-05-21T09:47:32;8.35;;;7.53;;
51475;SDS011;37554;50.362;7.568;2023-05-21T09:49:59;9.02;;;8.13;;
51475;SDS011;37554;50.362;7.568;2023-05-21T09:52:25;7.18;;;6.53;;
51475;SDS011;37554;50.362;7.568;2023-05-21T09:54:52;7.82;;;7.07;;
51475;SDS011;37554;50.362;7.568;2023-05-21T09:57:24;9.23;;;7.05;;
51475;SDS011;37554;50.362;7.568;2023-05-21T09:59:50;8.15;;;7.35;;
51475;SDS011;37554;50.362;7.568;2023-05-21T10:02:17;7.40;;;6.35;;
51475;SDS011;37554;50.362;7.568;2023-05-21T10:04:46;8.13;;;6.57;;
51475;SDS011;37554;50.362;7.568;2023-05-21T10:07:16;7.63;;;5.60;;
51475;SDS011;37554;50.362;7.568;2023-05-21T10:09:45;6.95;;;5.65;;
51475;SDS011;37554;50.362;7.568;2023-05-21T10:12:15;8.00;;;5.78;;
51475;SDS011;37554;50.362;7.568;2023-05-21T10:14:43;6.43;;;5.82;;
51475;SDS011;37554;50.362;7.568;2023-05-21T10:17:14;5.47;;;5.03;;
51475;SDS011;37554;50.362;7.568;2023-05-21T10:19:40;6.25;;;5.45;;
51475;SDS011;37554;50.362;7.568;2023-05-21T10:22:07;6.35;;;5.40;;
51475;SDS011;37554;50.362;7.568;2023-05-21T10:24:34;6.53;;;5.35;;
51475;SDS011;37554;50.362;7.568;2023-05-21T10:27:00;6.07;;;5.15;;
51475;SDS011;37554;50.362;7.568;2023-05-21T10:29:27;5.72;;;4.85;;
51475;SDS011;37554;50.362;7.568;2023-05-21T10:31:55;5.25;;;4.85;;
51475;SDS011;37554;50.362;7.568;2023-05-21T10:34:21;6.32;;;4.78;;
51475;SDS011;37554;50.362;7.568;2023-05-21T10:36:48;5.72;;;5.22;;
51475;SDS011;37554;50.362;7.568;2023-05-21T10:39:16;5.70;;;5.30;;
51475;SDS011;37554;50.362;7.568;2023-05-21T10:50:02;4.82;;;4.43;;
51475;SDS011;37554;50.362;7.568;2023-05-21T10:52:49;5.15;;;4.75;;
51475;SDS011;37554;50.362;7.568;2023-05-21T10:58:09;4.80;;;4.40;;
51475;SDS011;37554;50.362;7.568;2023-05-21T11:00:47;5.32;;;4.45;;
51475;SDS011;37554;50.362;7.568;2023-05-21T11:03:13;5.25;;;4.75;;
51475;SDS011;37554;50.362;7.568;2023-05-21T11:05:40;5.65;;;5.13;;
51475;SDS011;37554;50.362;7.568;2023-05-21T11:08:22;4.88;;;4.55;;
51475;SDS011;37554;50.362;7.568;2023-05-21T11:10:53;5.03;;;4.53;;
51475;SDS011;37554;50.362;7.568;2023-05-21T11:13:19;5.13;;;4.72;;
51475;SDS011;37554;50.362;7.568;2023-05-21T11:21:06;4.72;;;4.32;;
51475;SDS011;37554;50.362;7.568;2023-05-21T11:29:17;4.00;;;3.70;;
51475;SDS011;37554;50.362;7.568;2023-05-21T11:31:47;4.20;;;3.90;;
51475;SDS011;37554;50.362;7.568;2023-05-21T11:34:23;4.63;;;4.32;;
51475;SDS011;37554;50.362;7.568;2023-05-21T11:39:44;4.45;;;4.15;;
51475;SDS011;37554;50.362;7.568;2023-05-21T11:42:11;4.18;;;3.88;;
51475;SDS011;37554;50.362;7.568;2023-05-21T11:44:44;4.22;;;3.92;;
51475;SDS011;37554;50.362;7.568;2023-05-21T11:47:14;3.92;;;3.63;;
51475;SDS011;37554;50.362;7.568;2023-05-21T11:49:42;3.75;;;3.47;;
51475;SDS011;37554;50.362;7.568;2023-05-21T11:52:08;4.05;;;3.75;;
51475;SDS011;37554;50.362;7.568;2023-05-21T11:54:44;3.90;;;3.60;;
51475;SDS011;37554;50.362;7.568;2023-05-21T11:57:12;4.05;;;3.75;;
51475;SDS011;37554;50.362;7.568;2023-05-21T11:59:40;4.22;;;3.92;;
51475;SDS011;37554;50.362;7.568;2023-05-21T12:02:06;4.10;;;3.80;;
51475;SDS011;37554;50.362;7.568;2023-05-21T12:04:33;4.20;;;3.90;;
51475;SDS011;37554;50.362;7.568;2023-05-21T12:07:02;3.90;;;3.60;;
51475;SDS011;37554;50.362;7.568;2023-05-21T12:09:29;4.15;;;3.75;;
51475;SDS011;37554;50.362;7.568;2023-05-21T12:11:54;3.50;;;3.30;;
51475;SDS011;37554;50.362;7.568;2023-05-21T12:14:20;3.47;;;3.20;;
51475;SDS011;37554;50.362;7.568;2023-05-21T12:16:46;3.47;;;3.22;;
51475;SDS011;37554;50.362;7.568;2023-05-21T12:19:12;3.47;;;3.28;;
51475;SDS011;37554;50.362;7.568;2023-05-21T12:21:41;3.63;;;3.33;;
51475;SDS011;37554;50.362;7.568;2023-05-21T12:24:07;3.60;;;3.30;;
51475;SDS011;37554;50.362;7.568;2023-05-21T12:26:33;3.85;;;3.55;;
51475;SDS011;37554;50.362;7.568;2023-05-21T12:28:59;4.32;;;3.40;;
51475;SDS011;37554;50.362;7.568;2023-05-21T12:31:28;3.30;;;3.00;;
51475;SDS011;37554;50.362;7.568;2023-05-21T12:33:54;3.50;;;3.30;;
51475;SDS011;37554;50.362;7.568;2023-05-21T12:36:24;3.22;;;3.03;;
51475;SDS011;37554;50.362;7.568;2023-05-21T12:38:51;3.30;;;3.10;;
51475;SDS011;37554;50.362;7.568;2023-05-21T12:41:17;3.70;;;3.40;;
51475;SDS011;37554;50.362;7.568;2023-05-21T12:43:43;4.80;;;4.47;;
51475;SDS011;37554;50.362;7.568;2023-05-21T12:46:10;5.13;;;4.70;;
51475;SDS011;37554;50.362;7.568;2023-05-21T12:48:41;5.90;;;5.25;;
51475;SDS011;37554;50.362;7.568;2023-05-21T12:51:12;6.40;;;5.82;;
51475;SDS011;37554;50.362;7.568;2023-05-21T12:53:40;6.22;;;5.70;;
51475;SDS011;37554;50.362;7.568;2023-05-21T12:56:09;6.10;;;5.60;;
51475;SDS011;37554;50.362;7.568;2023-05-21T12:58:35;6.25;;;5.65;;
51475;SDS011;37554;50.362;7.568;2023-05-21T13:01:08;5.80;;;5.35;;
51475;SDS011;37554;50.362;7.568;2023-05-21T13:03:35;6.47;;;5.97;;
51475;SDS011;37554;50.362;7.568;2023-05-21T13:06:02;8.68;;;5.97;;
51475;SDS011;37554;50.362;7.568;2023-05-21T13:08:30;6.78;;;6.10;;
51475;SDS011;37554;50.362;7.568;2023-05-21T13:10:58;7.07;;;6.20;;
51475;SDS011;37554;50.362;7.568;2023-05-21T13:13:27;6.40;;;5.90;;
51475;SDS011;37554;50.362;7.568;2023-05-21T13:15:53;8.30;;;6.70;;
51475;SDS011;37554;50.362;7.568;2023-05-21T13:18:19;6.53;;;5.53;;
51475;SDS011;37554;50.362;7.568;2023-05-21T13:20:46;7.25;;;6.18;;
51475;SDS011;37554;50.362;7.568;2023-05-21T13:23:11;6.15;;;5.68;;
51475;SDS011;37554;50.362;7.568;2023-05-21T13:25:38;7.13;;;6.43;;
51475;SDS011;37554;50.362;7.568;2023-05-21T13:28:04;6.57;;;5.95;;
51475;SDS011;37554;50.362;7.568;2023-05-21T13:30:30;6.55;;;5.95;;
51475;SDS011;37554;50.362;7.568;2023-05-21T13:32:57;6.38;;;5.88;;
51475;SDS011;37554;50.362;7.568;2023-05-21T13:35:23;6.60;;;6.00;;
51475;SDS011;37554;50.362;7.568;2023-05-21T13:37:48;6.07;;;5.57;;
51475;SDS011;37554;50.362;7.568;2023-05-21T13:40:14;6.72;;;5.70;;
51475;SDS011;37554;50.362;7.568;2023-05-21T13:42:44;5.93;;;5.43;;
51475;SDS011;37554;50.362;7.568;2023-05-21T13:45:12;5.28;;;4.88;;
51475;SDS011;37554;50.362;7.568;2023-05-21T13:47:39;6.63;;;6.03;;
51475;SDS011;37554;50.362;7.568;2023-05-21T13:50:05;5.97;;;5.47;;
51475;SDS011;37554;50.362;7.568;2023-05-21T13:52:31;5.97;;;5.40;;
51475;SDS011;37554;50.362;7.568;2023-05-21T13:54:57;5.90;;;5.40;;
51475;SDS011;37554;50.362;7.568;2023-05-21T13:57:22;6.38;;;5.78;;
51475;SDS011;37554;50.362;7.568;2023-05-21T13:59:50;5.20;;;4.80;;
51475;SDS011;37554;50.362;7.568;2023-05-21T14:02:17;5.35;;;4.85;;
51475;SDS011;37554;50.362;7.568;2023-05-21T14:04:43;5.18;;;4.78;;
51475;SDS011;37554;50.362;7.568;2023-05-21T14:07:08;4.50;;;4.20;;
51475;SDS011;37554;50.362;7.568;2023-05-21T14:09:35;7.88;;;5.45;;
51475;SDS011;37554;50.362;7.568;2023-05-21T14:12:02;5.93;;;5.43;;
51475;SDS011;37554;50.362;7.568;2023-05-21T14:14:29;5.80;;;5.30;;
51475;SDS011;37554;50.362;7.568;2023-05-21T14:16:55;5.22;;;4.82;;
51475;SDS011;37554;50.362;7.568;2023-05-21T14:19:21;5.68;;;5.18;;
51475;SDS011;37554;50.362;7.568;2023-05-21T14:21:46;6.88;;;5.10;;
51475;SDS011;37554;50.362;7.568;2023-05-21T14:24:12;5.20;;;4.70;;
51475;SDS011;37554;50.362;7.568;2023-05-21T14:26:41;5.57;;;5.18;;
51475;SDS011;37554;50.362;7.568;2023-05-21T14:29:07;5.95;;;5.47;;
51475;SDS011;37554;50.362;7.568;2023-05-21T14:31:33;5.75;;;5.20;;
51475;SDS011;37554;50.362;7.568;2023-05-21T14:33:59;6.97;;;5.78;;
51475;SDS011;37554;50.362;7.568;2023-05-21T14:36:26;5.70;;;5.30;;
51475;SDS011;37554;50.362;7.568;2023-05-21T14:38:53;6.60;;;5.90;;
51475;SDS011;37554;50.362;7.568;2023-05-21T14:41:19;6.28;;;5.18;;
51475;SDS011;37554;50.362;7.568;2023-05-21T14:43:50;5.88;;;5.28;;
51475;SDS011;37554;50.362;7.568;2023-05-21T14:46:16;6.25;;;5.75;;
51475;SDS011;37554;50.362;7.568;2023-05-21T14:48:41;6.35;;;5.90;;
51475;SDS011;37554;50.362;7.568;2023-05-21T14:51:07;7.82;;;5.80;;
51475;SDS011;37554;50.362;7.568;2023-05-21T14:53:32;6.63;;;6.07;;
51475;SDS011;37554;50.362;7.568;2023-05-21T14:55:58;6.68;;;6.07;;
51475;SDS011;37554;50.362;7.568;2023-05-21T14:58:23;7.03;;;6.38;;
51475;SDS011;37554;50.362;7.568;2023-05-21T15:00:49;6.72;;;6.13;;
51475;SDS011;37554;50.362;7.568;2023-05-21T15:03:15;6.25;;;5.63;;
51475;SDS011;37554;50.362;7.568;2023-05-21T15:05:40;10.07;;;6.28;;
51475;SDS011;37554;50.362;7.568;2023-05-21T15:08:06;7.00;;;6.28;;
51475;SDS011;37554;50.362;7.568;2023-05-21T15:10:33;9.27;;;5.97;;
51475;SDS011;37554;50.362;7.568;2023-05-21T15:12:59;6.35;;;5.75;;
51475;SDS011;37554;50.362;7.568;2023-05-21T15:15:25;7.28;;;6.47;;
51475;SDS011;37554;50.362;7.568;2023-05-21T15:17:50;7.22;;;6.43;;
51475;SDS011;37554;50.362;7.568;2023-05-21T15:20:16;6.40;;;5.90;;